首页
METAR-TAF:

METAR-TAF

机场 :

科尔多瓦, 阿根廷

纬度: 31-19S, 经度: 064-13W, 海拔: 484米

当前天气观测

该预报发布于28分钟前的21:00 UTC
风速6节,风向东南
温度 15°C
湿度 94%
气压 1017 hPa
能見度: 5000
多云层高于600英尺
散云层高于1200英尺
小毛毛雨

METAR: SACO 222100Z 14006KT 5000 -DZ BKN006 SCT012 15/14 Q1017 NOSIG

时间: 18:28 (21:28 UTC)

预报

该预报发布于4小时和28分钟前的17:00 UTC
预报有效从22日的 18点(UTC)到 23日的 18点(UTC)
风速5节,风向
能見度: 5000
多云层高于600英尺
多云层高于4000英尺
少量云层高于4000英尺, 积雨云.
雨, 毛毛雨, 轻雾
成为
从 23日的 06点(UTC)到 23日的 09点(UTC)
风速5节,风向南转南东
能見度: 5000
散云层高于1000英尺
多云层高于4000英尺
小毛毛雨
成为
从 23日的 13点(UTC)到 23日的 16点(UTC)
风速5节,风向
能見度: 8000
多云层高于3000英尺

TAF: SACO 221700Z 2218/2318 18005KT 5000 RADZ BR BKN006 BKN040 TX23/2319Z TN14/2310Z FEW040CB BECMG 2306/2309 16005KT 5000 -DZ SCT010 BKN040 BECMG 2313/2316 09005KT 8000 BKN030

超过4000个机场的气象观测和天气预报(METAR&TAF报告)。

可查询的气象台以黄色和红色小点在地图上表示。

将鼠标移到小点上方,可查看气象台名称。

然后点击查看天气观测和预报。

如需切换地图:点击带黑十字的绿色按钮放大地图;点击带横线的绿色按钮缩小地图;或者点击绿色箭头查看邻近地区的地图。


METAR-TAF: